Whiting Field Naval Air Station South Airport
KNDZ : now visible

Aeroporto :











RITROVATECI SU...

 
LOGIN :

Iscrizione | Disclaimer

   EN    FR    IT 

 









Sommario :    VFR   VFR Marginale   IFR   IFR Intensivo   IFR Molto Intensivo
Visibilità : 
Base nubi : 
>= 8 km
>= 3000ft
5 / 8 km
1000 / 3000 ft
1500m / 5 km
500 / 1000 ft
800 / 1500m
200 / 500 ft
< 800m
< 200 ft
Simboli :   Temporali  Nebbia  Neve Forte  Precipitazioni Forti  Vento > 20 kt






- Altitudine del aeroporto : 177 ft


KNDZ - Whiting Field Naval Air Station South

ULTIMO METAR :
  • 272014Z 35009KT 10SM OVC013 13/09 A2996 RMK AO2 T01330094 PNO $

METARs OBSOLETI :
  • 271956Z 35009KT 10SM OVC015 13/09 A2997 RMK AO2 SLP135 T01330094 PNO $
  • 271856Z 01011KT 10SM BKN021 15/10 A2997 RMK AO2 SLP137 T01500100 PNO $
  • 271756Z 02010KT 10SM BKN018 16/11 A2998 RMK AO2 SLP141 6//// T01560106 10156 20094 58009 PNO $

TAF N/A



MetMap, La meteo Aeronautica in un colpo d'occhio ! - Copyright ORBIFLY Dicembre 2007 - Disclaimer

ORBIFLY MET'MAP TEAM :

Programmazione e sviluppo : Alexandra Zaïnal
Concezione : Baudouin d'Aumeries
Aiuto per la programmazione : Marc-Olivier Méhu
Supporto tecnico e logistico : Manuel Goepfert
Aiuto per la traduzione : Arnaldo La Scala

Contatto : metmap@orbifly.com




FONTI E CREDITI :

   NOAA       Earth
Advisory